Station Historical Data
Daily Summary for January 5, 2017 Units:  Metric    English   Both
Next Day »
Daily Weekly Monthly Yearly Custom
  High: Low: Average:
Temperature: 5.3 °C -0.4 °C 2.4 °C
Dew Point: 4.9 °C -2.1 °C 1.7 °C
Humidity: 97% 87% 95%
Wind Speed: 24.1km/h 0km/h 1.6km/h
Wind Gust: 30.6km/h - -
Wind- - SE
Pressure: 1020.5 hPa 1014.1 hPa -
Precipitation: 0 mm    
Historical Graphs
 
 
Tabular Data for January 5, 2017
Time Temperature Dew Point Pressure Wind Wind Speed Wind Gust Humidity Rainfall Rate (Hourly) solar Conditions
00:01 5.3 °C 4.9 °C 1014.8 hPa Calm     97% 0 mm 0.00 W/m2
00:06 5.3 °C 4.9 °C 1014.8 hPa Calm     97% 0 mm 0.00 W/m2
00:11 5.3 °C 4.9 °C 1014.8 hPa Calm     97% 0 mm 0.00 W/m2
00:16 5.3 °C 4.9 °C 1014.8 hPa Calm     97% 0 mm 0.00 W/m2
00:21 5.3 °C 4.9 °C 1014.8 hPa Calm     97% 0 mm 0.00 W/m2
00:26 5.3 °C 4.9 °C 1014.8 hPa Calm     97% 0 mm 0.00 W/m2
00:31 5.3 °C 4.9 °C 1014.8 hPa Calm     97% 0 mm 0.00 W/m2
00:36 5.3 °C 4.9 °C 1014.8 hPa Calm     97% 0 mm 0.00 W/m2
00:41 5.3 °C 4.9 °C 1014.8 hPa Calm     97% 0 mm 0.00 W/m2
00:46 5.3 °C 4.9 °C 1014.8 hPa Calm     97% 0 mm 0.00 W/m2
00:51 5.3 °C 4.9 °C 1014.8 hPa Calm     97% 0 mm 0.00 W/m2
00:56 5.3 °C 4.8 °C 1014.4 hPa Calm     97% 0 mm 0.00 W/m2
01:01 5.3 °C 4.8 °C 1014.4 hPa Calm     97% 0 mm 0.00 W/m2
01:06 5.3 °C 4.8 °C 1014.4 hPa Calm   1.6 km/h 97% 0 mm 0.00 W/m2
01:11 5.2 °C 4.8 °C 1014.4 hPa Calm   1.6 km/h 97% 0 mm 0.00 W/m2
01:16 5.2 °C 4.8 °C 1014.1 hPa Calm   1.6 km/h 97% 0 mm 0.00 W/m2
01:21 5.2 °C 4.7 °C 1014.1 hPa Calm   1.6 km/h 97% 0 mm 0.00 W/m2
01:27 5.1 °C 4.7 °C 1014.4 hPa SE 1.6 km/h 1.6 km/h 97% 0 mm 0.00 W/m2
01:32 5.1 °C 4.7 °C 1014.1 hPa Calm   1.6 km/h 97% 0 mm 0.00 W/m2
01:37 5.1 °C 4.6 °C 1014.4 hPa SE 1.6 km/h 1.6 km/h 97% 0 mm 0.00 W/m2
01:42 5.1 °C 4.6 °C 1014.4 hPa Calm   1.6 km/h 97% 0 mm 0.00 W/m2
01:47 5.1 °C 4.6 °C 1014.4 hPa Calm   1.6 km/h 97% 0 mm 0.00 W/m2
01:52 5.1 °C 4.6 °C 1014.4 hPa Calm   1.6 km/h 97% 0 mm 0.00 W/m2
01:57 5.1 °C 4.6 °C 1014.8 hPa Calm   1.6 km/h 97% 0 mm 0.00 W/m2
02:02 5 °C 4.6 °C 1014.8 hPa South 1.6 km/h 1.6 km/h 97% 0 mm 0.00 W/m2
02:07 5 °C 4.6 °C 1014.8 hPa Calm   1.6 km/h 97% 0 mm 0.00 W/m2
02:12 5 °C 4.6 °C 1014.8 hPa Calm   1.6 km/h 97% 0 mm 0.00 W/m2
02:17 5 °C 4.6 °C 1014.8 hPa Calm   1.6 km/h 97% 0 mm 0.00 W/m2
02:22 4.9 °C 4.5 °C 1015.1 hPa Calm   1.6 km/h 97% 0 mm 0.00 W/m2
02:27 4.9 °C 4.5 °C 1014.8 hPa Calm   1.6 km/h 97% 0 mm 0.00 W/m2
02:32 4.9 °C 4.5 °C 1014.8 hPa Calm   1.6 km/h 97% 0 mm 0.00 W/m2
02:37 4.9 °C 4.4 °C 1014.8 hPa Calm     97% 0 mm 0.00 W/m2
02:42 4.8 °C 4.4 °C 1014.8 hPa Calm     97% 0 mm 0.00 W/m2
02:47 4.8 °C 4.4 °C 1014.8 hPa Calm     97% 0 mm 0.00 W/m2
02:52 4.8 °C 4.4 °C 1014.8 hPa Calm     97% 0 mm 0.00 W/m2
02:57 4.8 °C 4.3 °C 1014.8 hPa Calm     97% 0 mm 0.00 W/m2
03:02 4.8 °C 4.3 °C 1014.4 hPa Calm     97% 0 mm 0.00 W/m2
03:07 4.8 °C 4.3 °C 1014.4 hPa South 8 km/h 14.5 km/h 97% 0 mm 0.00 W/m2
03:12 4.7 °C 4.3 °C 1014.4 hPa Calm   1.6 km/h 97% 0 mm 0.00 W/m2
03:17 4.7 °C 4.3 °C 1014.4 hPa Calm     97% 0 mm 0.00 W/m2
03:22 4.7 °C 4.3 °C 1014.4 hPa Calm     97% 0 mm 0.00 W/m2
03:27 4.7 °C 4.3 °C 1014.4 hPa Calm     97% 0 mm 0.00 W/m2
03:32 4.7 °C 4.3 °C 1014.1 hPa Calm     97% 0 mm 0.00 W/m2
03:37 4.7 °C 4.3 °C 1014.4 hPa Calm   1.6 km/h 97% 0 mm 0.00 W/m2
03:42 4.7 °C 4.3 °C 1014.4 hPa Calm   1.6 km/h 97% 0 mm 0.00 W/m2
03:47 4.7 °C 4.3 °C 1014.1 hPa Calm   1.6 km/h 97% 0 mm 0.00 W/m2
03:53 4.7 °C 4.3 °C 1014.1 hPa SSW 1.6 km/h 6.4 km/h 97% 0 mm 0.00 W/m2
03:57 4.7 °C 4.3 °C 1014.1 hPa Calm   1.6 km/h 97% 0 mm 0.00 W/m2
04:02 4.8 °C 4.3 °C 1014.1 hPa Calm   1.6 km/h 97% 0 mm 0.00 W/m2
04:07 4.8 °C 4.3 °C 1014.1 hPa Calm   1.6 km/h 97% 0 mm 0.00 W/m2
04:12 4.7 °C 4.2 °C 1014.1 hPa Calm   1.6 km/h 97% 0 mm 0.00 W/m2
04:17 4.6 °C 4.2 °C 1014.1 hPa Calm   1.6 km/h 97% 0 mm 0.00 W/m2
04:22 4.6 °C 4.1 °C 1014.1 hPa Calm     97% 0 mm 0.00 W/m2
04:28 4.4 °C 4 °C 1014.1 hPa Calm     97% 0 mm 0.00 W/m2
04:33 4.3 °C 3.8 °C 1014.1 hPa Calm     96% 0 mm 0.00 W/m2
04:38 4.2 °C 3.7 °C 1014.4 hPa Calm     96% 0 mm 0.00 W/m2
04:43 4 °C 3.4 °C 1014.4 hPa Calm   1.6 km/h 96% 0 mm 0.00 W/m2
04:48 3.9 °C 3.3 °C 1014.4 hPa Calm     96% 0 mm 0.00 W/m2
04:53 3.8 °C 3.3 °C 1014.4 hPa Calm     96% 0 mm 0.00 W/m2
04:58 3.8 °C 3.2 °C 1014.4 hPa Calm   1.6 km/h 96% 0 mm 0.00 W/m2
05:03 3.7 °C 3.2 °C 1014.4 hPa Calm     96% 0 mm 0.00 W/m2
05:08 3.7 °C 3.1 °C 1014.4 hPa Calm   1.6 km/h 96% 0 mm 0.00 W/m2
05:13 3.6 °C 3.1 °C 1014.4 hPa Calm     96% 0 mm 0.00 W/m2
05:18 3.6 °C 3 °C 1014.4 hPa Calm   1.6 km/h 96% 0 mm 0.00 W/m2
05:23 3.5 °C 2.9 °C 1014.4 hPa Calm     96% 0 mm 0.00 W/m2
05:28 3.4 °C 2.9 °C 1014.4 hPa Calm   1.6 km/h 96% 0 mm 0.00 W/m2
05:33 3.4 °C 2.8 °C 1014.8 hPa Calm   1.6 km/h 96% 0 mm 0.00 W/m2
05:38 3.3 °C 2.8 °C 1014.8 hPa Calm     96% 0 mm 0.00 W/m2
05:43 3.2 °C 2.7 °C 1014.4 hPa Calm   1.6 km/h 96% 0 mm 0.00 W/m2
05:48 3.2 °C 2.6 °C 1014.8 hPa Calm   14.5 km/h 96% 0 mm 0.00 W/m2
05:53 3.1 °C 2.6 °C 1014.8 hPa Calm   1.6 km/h 96% 0 mm 0.00 W/m2
05:58 3.1 °C 2.5 °C 1014.8 hPa Calm     96% 0 mm 0.00 W/m2
06:03 3.1 °C 2.5 °C 1014.8 hPa Calm   1.6 km/h 96% 0 mm 0.00 W/m2
06:08 3 °C 2.4 °C 1014.8 hPa Calm     96% 0 mm 0.00 W/m2
06:13 2.9 °C 2.4 °C 1014.8 hPa West 4.8 km/h 12.9 km/h 96% 0 mm 0.00 W/m2
06:18 2.9 °C 2.3 °C 1014.8 hPa Calm   1.6 km/h 96% 0 mm 0.00 W/m2
06:23 2.8 °C 2.3 °C 1015.1 hPa Calm     96% 0 mm 0.00 W/m2
06:28 2.8 °C 2.2 °C 1015.1 hPa Calm     96% 0 mm 0.00 W/m2
06:33 2.7 °C 2.2 °C 1015.1 hPa Calm     96% 0 mm 0.00 W/m2
06:38 2.7 °C 2.1 °C 1015.1 hPa Calm     96% 0 mm 0.00 W/m2
06:43 2.7 °C 2.1 °C 1015.1 hPa Calm     96% 0 mm 0.00 W/m2
06:48 2.7 °C 2.1 °C 1015.1 hPa Calm     96% 0 mm 0.00 W/m2
06:53 2.7 °C 2.1 °C 1015.1 hPa Calm     96% 0 mm 0.00 W/m2
06:58 2.6 °C 2.1 °C 1015.1 hPa Calm     96% 0 mm 0.00 W/m2
07:03 2.6 °C 2 °C 1015.1 hPa Calm     96% 0 mm 0.00 W/m2
07:08 2.4 °C 1.9 °C 1015.5 hPa Calm     96% 0 mm 0.00 W/m2
07:13 2.3 °C 1.8 °C 1015.5 hPa Calm     96% 0 mm 0.00 W/m2
07:18 2.2 °C 1.7 °C 1015.5 hPa Calm     96% 0 mm 0.00 W/m2
07:23 2.2 °C 1.6 °C 1015.5 hPa Calm     96% 0 mm 5.00 W/m2
07:28 2.1 °C 1.6 °C 1015.5 hPa Calm     96% 0 mm 5.00 W/m2
07:33 2 °C 1.4 °C 1015.5 hPa Calm     96% 0 mm 5.00 W/m2
07:39 2 °C 1.4 °C 1015.8 hPa Calm     96% 0 mm 5.00 W/m2
07:44 1.9 °C 1.4 °C 1015.8 hPa Calm     96% 0 mm 5.00 W/m2
07:49 1.9 °C 1.4 °C 1015.8 hPa Calm     96% 0 mm 7.00 W/m2
07:54 1.9 °C 1.3 °C 1015.8 hPa Calm     96% 0 mm 9.00 W/m2
07:59 1.8 °C 1.3 °C 1015.8 hPa Calm     96% 0 mm 18.00 W/m2
08:04 1.8 °C 1.3 °C 1015.8 hPa Calm     96% 0 mm 14.00 W/m2
08:09 1.8 °C 1.3 °C 1015.8 hPa Calm     96% 0 mm 37.00 W/m2
08:14 1.9 °C 1.3 °C 1015.8 hPa Calm     96% 0 mm 28.00 W/m2
08:19 1.9 °C 1.3 °C 1015.8 hPa Calm     96% 0 mm 42.00 W/m2
08:24 1.9 °C 1.4 °C 1015.8 hPa Calm     96% 0 mm 60.00 W/m2
08:29 1.9 °C 1.4 °C 1016.1 hPa Calm     96% 0 mm 53.00 W/m2
08:34 1.9 °C 1.4 °C 1016.1 hPa Calm     96% 0 mm 51.00 W/m2
08:39 1.9 °C 1.4 °C 1016.1 hPa Calm     96% 0 mm 72.00 W/m2
08:44 1.9 °C 1.3 °C 1016.5 hPa Calm     96% 0 mm 67.00 W/m2
08:49 1.8 °C 1.3 °C 1016.5 hPa Calm     96% 0 mm 81.00 W/m2
08:54 1.8 °C 1.3 °C 1016.5 hPa Calm     96% 0 mm 63.00 W/m2
08:59 1.8 °C 1.3 °C 1016.5 hPa Calm     96% 0 mm 63.00 W/m2
09:04 1.9 °C 1.3 °C 1016.5 hPa Calm     96% 0 mm 76.00 W/m2
09:09 1.9 °C 1.3 °C 1016.8 hPa Calm     96% 0 mm 84.00 W/m2
09:14 1.9 °C 1.3 °C 1016.8 hPa Calm     96% 0 mm 107.00 W/m2
09:19 1.9 °C 1.4 °C 1016.8 hPa Calm     96% 0 mm 197.00 W/m2
09:24 2 °C 1.4 °C 1016.8 hPa Calm     96% 0 mm 174.00 W/m2
09:29 2 °C 1.4 °C 1017.2 hPa Calm     96% 0 mm 200.00 W/m2
09:34 2 °C 1.4 °C 1017.2 hPa Calm     96% 0 mm 244.00 W/m2
09:39 2 °C 1.4 °C 1017.2 hPa Calm     96% 0 mm 265.00 W/m2
09:44 2.1 °C 1.5 °C 1017.5 hPa Calm     96% 0 mm 144.00 W/m2
09:49 2.1 °C 1.7 °C 1017.5 hPa Calm     97% 0 mm 123.00 W/m2
09:54 2.2 °C 1.7 °C 1017.5 hPa Calm     97% 0 mm 311.00 W/m2
09:59 2.1 °C 1.6 °C 1017.8 hPa Calm     96% 0 mm 163.00 W/m2
10:04 2.1 °C 1.7 °C 1017.5 hPa Calm     97% 0 mm 359.00 W/m2
10:09 2.2 °C 1.7 °C 1017.8 hPa Calm     97% 0 mm 584.00 W/m2
10:14 2.2 °C 1.8 °C 1017.5 hPa Calm     97% 0 mm 605.00 W/m2
10:19 2.3 °C 1.9 °C 1017.5 hPa Calm     97% 0 mm 610.00 W/m2
10:24 2.4 °C 1.9 °C 1017.5 hPa SSE 1.6 km/h 1.6 km/h 97% 0 mm 216.00 W/m2
10:29 2.5 °C 2.1 °C 1017.5 hPa Calm   1.6 km/h 97% 0 mm 497.00 W/m2
10:34 2.5 °C 2.1 °C 1017.5 hPa SSE 1.6 km/h 1.6 km/h 97% 0 mm 497.00 W/m2
10:39 2.4 °C 1.9 °C 1017.5 hPa Calm   3.2 km/h 97% 0 mm 417.00 W/m2
10:44 2.3 °C 1.9 °C 1017.5 hPa SSE 1.6 km/h 1.6 km/h 97% 0 mm 88.00 W/m2
10:49 2.3 °C 1.9 °C 1017.5 hPa Calm   1.6 km/h 97% 0 mm 568.00 W/m2
10:54 2.3 °C 1.8 °C 1017.5 hPa Calm   1.6 km/h 97% 0 mm 171.00 W/m2
10:55 2.3 °C 1.8 °C 1017.5 hPa Calm   1.6 km/h 97% 0 mm 171.00 W/m2
11:00 2.3 °C 1.8 °C 1017.5 hPa SSE 1.6 km/h 1.6 km/h 97% 0 mm 183.00 W/m2
11:05 2.3 °C 1.8 °C 1017.2 hPa Calm   1.6 km/h 97% 0 mm 603.00 W/m2
11:10 2.3 °C 1.8 °C 1017.2 hPa Calm   1.6 km/h 97% 0 mm 619.00 W/m2
11:15 2.3 °C 1.8 °C 1017.2 hPa Calm   3.2 km/h 97% 0 mm 693.00 W/m2
11:20 2.3 °C 1.9 °C 1017.2 hPa Calm   14.5 km/h 97% 0 mm 657.00 W/m2
11:25 2.4 °C 2 °C 1017.2 hPa Calm   3.2 km/h 97% 0 mm 615.00 W/m2
11:30 2.4 °C 2 °C 1017.2 hPa Calm   1.6 km/h 97% 0 mm 246.00 W/m2
11:35 2.4 °C 2 °C 1017.2 hPa Calm   1.6 km/h 97% 0 mm 684.00 W/m2
11:40 2.6 °C 2.1 °C 1016.8 hPa Calm   1.6 km/h 97% 0 mm 649.00 W/m2
11:45 2.6 °C 2.2 °C 1016.8 hPa SSE 1.6 km/h 1.6 km/h 97% 0 mm 693.00 W/m2
11:50 2.6 °C 2.2 °C 1016.8 hPa Calm   1.6 km/h 97% 0 mm 149.00 W/m2
11:55 2.6 °C 2.1 °C 1016.8 hPa Calm   1.6 km/h 97% 0 mm 633.00 W/m2
12:00 2.6 °C 2.2 °C 1016.8 hPa Calm     97% 0 mm 237.00 W/m2
12:05 2.6 °C 2.2 °C 1017.2 hPa Calm     97% 0 mm 227.00 W/m2
12:10 2.4 °C 1.8 °C 1017.2 hPa Calm   1.6 km/h 96% 0 mm 735.00 W/m2
12:15 2.4 °C 1.8 °C 1017.2 hPa Calm   1.6 km/h 96% 0 mm 766.00 W/m2
12:20 2.6 °C 2 °C 1017.2 hPa Calm   1.6 km/h 96% 0 mm 271.00 W/m2
12:25 2.6 °C 2 °C 1017.2 hPa Calm   1.6 km/h 96% 0 mm 339.00 W/m2
12:30 2.6 °C 2.1 °C 1017.2 hPa Calm   1.6 km/h 96% 0 mm 160.00 W/m2
12:35 2.7 °C 2.1 °C 1017.2 hPa Calm   1.6 km/h 96% 0 mm 169.00 W/m2
12:40 2.6 °C 2 °C 1016.8 hPa Calm   1.6 km/h 96% 0 mm 322.00 W/m2
12:45 2.6 °C 2 °C 1016.8 hPa Calm   1.6 km/h 96% 0 mm 708.00 W/m2
12:50 2.7 °C 2.2 °C 1016.8 hPa WSW 1.6 km/h 11.3 km/h 96% 0 mm 265.00 W/m2
12:55 2.8 °C 2.3 °C 1017.2 hPa Calm   1.6 km/h 96% 0 mm 297.00 W/m2
13:00 2.9 °C 2.3 °C 1016.8 hPa West 1.6 km/h 1.6 km/h 96% 0 mm 664.00 W/m2
13:05 2.8 °C 1.9 °C 1016.8 hPa Calm   1.6 km/h 94% 0 mm 684.00 W/m2
13:10 2.8 °C 1.8 °C 1016.8 hPa SW 1.6 km/h 3.2 km/h 93% 0 mm 650.00 W/m2
13:16 2.9 °C 2.1 °C 1016.8 hPa SW 1.6 km/h 3.2 km/h 94% 0 mm 605.00 W/m2
13:21 3 °C 2 °C 1016.8 hPa Calm   1.6 km/h 93% 0 mm 120.00 W/m2
13:26 3.1 °C 1.9 °C 1016.8 hPa Calm   1.6 km/h 92% 0 mm 107.00 W/m2
13:31 3.1 °C 1.9 °C 1016.8 hPa Calm   1.6 km/h 92% 0 mm 95.00 W/m2
13:36 3 °C 1.7 °C 1016.8 hPa Calm     91% 0 mm 132.00 W/m2
13:41 2.9 °C 1.6 °C 1016.8 hPa Calm   1.6 km/h 91% 0 mm 155.00 W/m2
13:46 2.8 °C 1.3 °C 1016.8 hPa Calm   1.6 km/h 90% 0 mm 148.00 W/m2
13:51 2.8 °C 1.4 °C 1017.2 hPa Calm   1.6 km/h 91% 0 mm 121.00 W/m2
13:56 2.7 °C 1.4 °C 1017.2 hPa Calm     91% 0 mm 144.00 W/m2
14:01 2.7 °C 1.6 °C 1017.2 hPa Calm     92% 0 mm 165.00 W/m2
14:06 2.7 °C 1.6 °C 1017.2 hPa Calm     92% 0 mm 571.00 W/m2
14:11 2.8 °C 1.6 °C 1017.2 hPa Calm   1.6 km/h 92% 0 mm 197.00 W/m2
14:16 2.8 °C 1.8 °C 1017.2 hPa Calm   1.6 km/h 93% 0 mm 218.00 W/m2
14:21 2.9 °C 1.9 °C 1017.5 hPa Calm   1.6 km/h 93% 0 mm 218.00 W/m2
14:26 3.1 °C 2.1 °C 1017.5 hPa Calm   1.6 km/h 93% 0 mm 253.00 W/m2
14:31 3.2 °C 2.2 °C 1017.5 hPa Calm   1.6 km/h 93% 0 mm 547.00 W/m2
14:36 3.2 °C 2.1 °C 1017.5 hPa Calm   1.6 km/h 92% 0 mm 234.00 W/m2
14:41 3.3 °C 1.9 °C 1017.5 hPa Calm   1.6 km/h 91% 0 mm 160.00 W/m2
14:46 3.3 °C 2 °C 1017.5 hPa Calm   1.6 km/h 91% 0 mm 169.00 W/m2
14:51 3.3 °C 2.1 °C 1017.8 hPa West 1.6 km/h 1.6 km/h 92% 0 mm 185.00 W/m2
14:56 3.2 °C 1.9 °C 1017.8 hPa Calm   1.6 km/h 91% 0 mm 174.00 W/m2
15:01 3.2 °C 1.9 °C 1017.8 hPa Calm   1.6 km/h 91% 0 mm 457.00 W/m2
15:06 3.2 °C 2.1 °C 1017.8 hPa Calm   1.6 km/h 92% 0 mm 232.00 W/m2
15:11 3.2 °C 2.1 °C 1017.8 hPa Calm   1.6 km/h 92% 0 mm 457.00 W/m2
15:16 3.2 °C 2.1 °C 1017.8 hPa Calm   1.6 km/h 92% 0 mm 230.00 W/m2
15:21 3.2 °C 2.1 °C 1017.8 hPa Calm   1.6 km/h 92% 0 mm 350.00 W/m2
15:26 3.2 °C 2.1 °C 1017.8 hPa Calm   1.6 km/h 92% 0 mm 257.00 W/m2
15:31 3.1 °C 2.1 °C 1018.2 hPa Calm   1.6 km/h 93% 0 mm 135.00 W/m2
15:36 3 °C 2 °C 1018.2 hPa Calm   1.6 km/h 93% 0 mm 169.00 W/m2
15:41 2.9 °C 1.9 °C 1018.2 hPa Calm   1.6 km/h 93% 0 mm 144.00 W/m2
15:46 2.9 °C 1.9 °C 1018.2 hPa Calm   1.6 km/h 93% 0 mm 220.00 W/m2
15:51 2.8 °C 1.8 °C 1018.5 hPa Calm   1.6 km/h 93% 0 mm 244.00 W/m2
15:56 2.8 °C 1.8 °C 1018.5 hPa Calm   1.6 km/h 93% 0 mm 102.00 W/m2
16:01 2.8 °C 1.9 °C 1018.5 hPa Calm   1.6 km/h 94% 0 mm 83.00 W/m2
16:06 2.8 °C 1.8 °C 1018.5 hPa Calm     93% 0 mm 69.00 W/m2
16:11 2.7 °C 1.7 °C 1018.5 hPa Calm   1.6 km/h 93% 0 mm 63.00 W/m2
16:12 2.7 °C 1.7 °C 1018.5 hPa Calm     93% 0 mm 58.00 W/m2
16:17 2.7 °C 1.7 °C 1018.5 hPa Calm     93% 0 mm 67.00 W/m2
16:22 2.6 °C 1.6 °C 1018.5 hPa Calm     93% 0 mm 54.00 W/m2
16:27 2.4 °C 1.4 °C 1018.5 hPa Calm   1.6 km/h 93% 0 mm 54.00 W/m2
16:32 2.3 °C 1.4 °C 1018.8 hPa Calm     94% 0 mm 32.00 W/m2
16:37 2.2 °C 1.3 °C 1018.8 hPa Calm     94% 0 mm 18.00 W/m2
16:42 2.1 °C 1.1 °C 1018.8 hPa Calm     93% 0 mm 14.00 W/m2
16:47 2.1 °C 1.2 °C 1018.8 hPa Calm     94% 0 mm 11.00 W/m2
16:52 2 °C 1.1 °C 1018.8 hPa Calm     94% 0 mm 9.00 W/m2
16:57 1.9 °C 1 °C 1018.8 hPa Calm     94% 0 mm 5.00 W/m2
17:02 1.8 °C 1 °C 1018.8 hPa Calm     94% 0 mm 0.00 W/m2
17:07 1.7 °C 0.8 °C 1018.8 hPa Calm     94% 0 mm 0.00 W/m2
17:12 1.6 °C 0.7 °C 1018.8 hPa Calm     94% 0 mm 0.00 W/m2
17:17 1.6 °C 0.7 °C 1018.8 hPa Calm     94% 0 mm 0.00 W/m2
17:22 1.4 °C 0.6 °C 1018.8 hPa Calm     94% 0 mm 0.00 W/m2
17:27 1.3 °C 0.5 °C 1018.8 hPa Calm     94% 0 mm 0.00 W/m2
17:32 1.3 °C 0.4 °C 1018.8 hPa Calm     94% 0 mm 0.00 W/m2
17:37 1.2 °C 0.4 °C 1018.8 hPa Calm     94% 0 mm 0.00 W/m2
17:42 1.1 °C 0.3 °C 1018.8 hPa Calm     94% 0 mm 0.00 W/m2
17:47 1.1 °C 0.2 °C 1018.8 hPa Calm     94% 0 mm 0.00 W/m2
17:52 1 °C 0.3 °C 1018.8 hPa Calm     95% 0 mm 0.00 W/m2
17:57 1 °C 0.3 °C 1018.8 hPa Calm   1.6 km/h 95% 0 mm 0.00 W/m2
18:02 0.9 °C 0.2 °C 1018.8 hPa Calm     95% 0 mm 0.00 W/m2
18:07 0.9 °C 0.2 °C 1019.2 hPa Calm     95% 0 mm 0.00 W/m2
18:13 0.9 °C 0.2 °C 1019.2 hPa Calm     95% 0 mm 0.00 W/m2
18:18 0.9 °C 0.2 °C 1019.2 hPa Calm     95% 0 mm 0.00 W/m2
18:23 0.9 °C 0.2 °C 1019.2 hPa Calm     95% 0 mm 0.00 W/m2
18:28 0.9 °C 0.2 °C 1018.8 hPa Calm     95% 0 mm 0.00 W/m2
18:33 0.8 °C 0.1 °C 1019.2 hPa Calm     95% 0 mm 0.00 W/m2
18:38 0.8 °C 0.1 °C 1019.2 hPa Calm     95% 0 mm 0.00 W/m2
18:43 0.8 °C 0.1 °C 1019.2 hPa Calm     95% 0 mm 0.00 W/m2
18:48 0.7 °C 0 °C 1018.8 hPa Calm     95% 0 mm 0.00 W/m2
18:53 0.7 °C 0 °C 1018.8 hPa Calm     95% 0 mm 0.00 W/m2
18:58 0.7 °C 0 °C 1018.8 hPa Calm     95% 0 mm 0.00 W/m2
19:03 0.7 °C 0 °C 1018.8 hPa Calm     95% 0 mm 0.00 W/m2
19:08 0.7 °C 0 °C 1019.2 hPa Calm     95% 0 mm 0.00 W/m2
19:13 0.7 °C 0 °C 1019.2 hPa Calm     95% 0 mm 0.00 W/m2
19:18 0.7 °C 0 °C 1019.2 hPa Calm     95% 0 mm 0.00 W/m2
19:23 0.7 °C 0 °C 1019.2 hPa Calm     95% 0 mm 0.00 W/m2
19:28 0.7 °C 0 °C 1019.2 hPa Calm     95% 0 mm 0.00 W/m2
19:33 0.7 °C -0.1 °C 1019.2 hPa Calm     95% 0 mm 0.00 W/m2
19:38 0.7 °C -0.1 °C 1019.2 hPa Calm     95% 0 mm 0.00 W/m2
19:43 0.6 °C -0.1 °C 1019.2 hPa Calm     95% 0 mm 0.00 W/m2
19:48 0.6 °C -0.2 °C 1019.2 hPa Calm     95% 0 mm 0.00 W/m2
19:53 0.4 °C -0.3 °C 1019.2 hPa Calm     95% 0 mm 0.00 W/m2
19:58 0.3 °C -0.4 °C 1019.2 hPa Calm     95% 0 mm 0.00 W/m2
20:03 0.3 °C -0.4 °C 1019.5 hPa Calm     95% 0 mm 0.00 W/m2
20:08 0.2 °C -0.5 °C 1019.2 hPa Calm     95% 0 mm 0.00 W/m2
20:13 0.2 °C -0.6 °C 1019.2 hPa Calm     95% 0 mm 0.00 W/m2
20:18 0.1 °C -0.6 °C 1019.2 hPa Calm     95% 0 mm 0.00 W/m2
20:23 0.1 °C -0.6 °C 1019.2 hPa Calm     95% 0 mm 0.00 W/m2
20:28 0.1 °C -0.6 °C 1019.2 hPa Calm     95% 0 mm 0.00 W/m2
20:33 0.1 °C -0.6 °C 1019.2 hPa Calm     95% 0 mm 0.00 W/m2
20:38 0.1 °C -0.7 °C 1019.2 hPa Calm     95% 0 mm 0.00 W/m2
20:43 0.1 °C -0.7 °C 1019.5 hPa Calm     95% 0 mm 0.00 W/m2
20:48 0 °C -0.7 °C 1019.5 hPa Calm     95% 0 mm 0.00 W/m2
20:53 -0.1 °C -0.8 °C 1019.5 hPa Calm     95% 0 mm 0.00 W/m2
20:58 -0.1 °C -0.8 °C 1019.5 hPa Calm     95% 0 mm 0.00 W/m2
21:03 -0.2 °C -0.9 °C 1019.5 hPa Calm     95% 0 mm 0.00 W/m2
21:08 -0.2 °C -0.9 °C 1019.5 hPa Calm     95% 0 mm 0.00 W/m2
21:13 -0.2 °C -0.9 °C 1019.5 hPa East 24.1 km/h 30.6 km/h 95% 0 mm 0.00 W/m2
21:18 -0.3 °C -1 °C 1019.5 hPa East 11.3 km/h 25.7 km/h 95% 0 mm 0.00 W/m2
21:23 -0.3 °C -1 °C 1019.9 hPa Calm   20.9 km/h 95% 0 mm 0.00 W/m2
21:28 -0.3 °C -1 °C 1019.9 hPa East 8 km/h 20.9 km/h 95% 0 mm 0.00 W/m2
21:33 -0.3 °C -1 °C 1019.9 hPa Calm   24.1 km/h 95% 0 mm 0.00 W/m2
21:38 -0.3 °C -1 °C 1019.9 hPa East 20.9 km/h 20.9 km/h 95% 0 mm 0.00 W/m2
21:43 -0.3 °C -1.2 °C 1019.9 hPa East 12.9 km/h 22.5 km/h 94% 0 mm 0.00 W/m2
21:48 -0.3 °C -1.2 °C 1019.9 hPa Calm   20.9 km/h 94% 0 mm 0.00 W/m2
21:53 -0.3 °C -1.2 °C 1019.9 hPa East 14.5 km/h 25.7 km/h 94% 0 mm 0.00 W/m2
21:58 -0.3 °C -1.2 °C 1019.9 hPa ESE 14.5 km/h 29 km/h 94% 0 mm 0.00 W/m2
22:03 -0.3 °C -1.2 °C 1019.9 hPa East 17.7 km/h 22.5 km/h 94% 0 mm 0.00 W/m2
22:08 -0.3 °C -1.3 °C 1019.9 hPa ESE 9.7 km/h 25.7 km/h 93% 0 mm 0.00 W/m2
22:13 -0.4 °C -1.4 °C 1020.2 hPa East 6.4 km/h 24.1 km/h 93% 0 mm 0.00 W/m2
22:18 -0.3 °C -1.3 °C 1020.2 hPa East 6.4 km/h 20.9 km/h 93% 0 mm 0.00 W/m2
22:23 -0.3 °C -1.4 °C 1020.2 hPa East 8 km/h 24.1 km/h 92% 0 mm 0.00 W/m2
22:28 -0.3 °C -1.6 °C 1019.9 hPa East 14.5 km/h 20.9 km/h 91% 0 mm 0.00 W/m2
22:33 -0.2 °C -1.5 °C 1019.9 hPa East 8 km/h 25.7 km/h 91% 0 mm 0.00 W/m2
22:38 -0.2 °C -1.5 °C 1019.9 hPa East 12.9 km/h 24.1 km/h 91% 0 mm 0.00 W/m2
22:43 -0.2 °C -1.7 °C 1019.9 hPa East 19.3 km/h 24.1 km/h 90% 0 mm 0.00 W/m2
22:48 -0.2 °C -1.6 °C 1019.9 hPa ESE 6.4 km/h 24.1 km/h 90% 0 mm 0.00 W/m2
22:54 -0.2 °C -1.6 °C 1019.9 hPa ESE 24.1 km/h 24.1 km/h 90% 0 mm 0.00 W/m2
22:59 -0.2 °C -1.6 °C 1020.2 hPa East 22.5 km/h 22.5 km/h 90% 0 mm 0.00 W/m2
23:04 -0.2 °C -1.6 °C 1020.2 hPa East 14.5 km/h 22.5 km/h 90% 0 mm 0.00 W/m2
23:09 -0.1 °C -1.6 °C 1020.2 hPa East 22.5 km/h 25.7 km/h 90% 0 mm 0.00 W/m2
23:14 -0.2 °C -1.6 °C 1020.2 hPa ESE 8 km/h 29 km/h 90% 0 mm 0.00 W/m2
23:19 -0.2 °C -1.6 °C 1020.2 hPa East 11.3 km/h 24.1 km/h 90% 0 mm 0.00 W/m2
23:24 -0.2 °C -1.8 °C 1020.2 hPa East 19.3 km/h 24.1 km/h 89% 0 mm 0.00 W/m2
23:29 -0.2 °C -1.8 °C 1020.2 hPa East 19.3 km/h 24.1 km/h 89% 0 mm 0.00 W/m2
23:34 -0.2 °C -1.8 °C 1020.2 hPa East 6.4 km/h 24.1 km/h 89% 0 mm 0.00 W/m2
23:39 -0.2 °C -1.8 °C 1020.2 hPa East 22.5 km/h 25.7 km/h 89% 0 mm 0.00 W/m2
23:44 -0.2 °C -1.8 °C 1020.5 hPa ESE 12.9 km/h 25.7 km/h 89% 0 mm 0.00 W/m2
23:49 -0.2 °C -1.9 °C 1020.5 hPa East 8 km/h 20.9 km/h 88% 0 mm 0.00 W/m2
23:54 -0.2 °C -1.9 °C 1020.5 hPa East 3.2 km/h 22.5 km/h 88% 0 mm 0.00 W/m2
23:59 -0.2 °C -2.1 °C 1020.5 hPa East 20.9 km/h 24.1 km/h 87% 0 mm 0.00 W/m2
Foresthill Weather
 WU-history PHP script courtesy of   Juneau County Weather.
powered by Cumulus v1.9.3 (1059)
Ambient Weather VWS v14.00
Top Contact Website Map Copyright © 2007 - 2018 Foresthillweather.com Never base important decisions on this or any weather information obtained from the Internet